Time;durP1;ratioP1;P1;durP2;ratioP2;P2;SDS_P1;SDS_P2;PMS_P1;PMS_P2;Temp;Humidity;BMP_temperature;BMP_pressure;BME280_temperature;BME280_humidity;BME280_pressure;Samples;Min_cycle;Max_cycle;Signal;HPM_P1;HPM_P2
2024/01/02 00:00:08;;;;;;;3.55;0.82;;;8.10;99.90;;;;;;5056605;28;20418;-61
2024/01/02 00:02:40;;;;;;;2.78;0.80;;;8.10;99.90;;;;;;5056865;28;20304;-62
2024/01/02 00:05:07;;;;;;;5.07;0.80;;;8.10;99.90;;;;;;5056972;28;20033;-63
2024/01/02 00:07:32;;;;;;;4.63;0.88;;;8.10;99.90;;;;;;5055878;28;20025;-63
2024/01/02 00:09:58;;;;;;;6.32;0.90;;;8.10;99.90;;;;;;5056597;28;20029;-64
2024/01/02 00:12:24;;;;;;;3.65;0.90;;;8.10;99.90;;;;;;5056538;28;20025;-63
2024/01/02 00:14:53;;;;;;;3.85;1.13;;;8.10;99.90;;;;;;5056565;28;20496;-65
2024/01/02 00:17:19;;;;;;;6.40;0.90;;;8.10;99.90;;;;;;5056535;28;20389;-64
2024/01/02 00:19:45;;;;;;;3.13;0.63;;;8.00;99.90;;;;;;5056717;28;20045;-65
2024/01/02 00:22:10;;;;;;;3.80;0.80;;;8.00;99.90;;;;;;5059762;28;20427;-63
2024/01/02 00:24:36;;;;;;;2.33;0.73;;;8.00;99.90;;;;;;5059877;28;20025;-63
2024/01/02 00:27:02;;;;;;;5.90;1.00;;;8.00;99.90;;;;;;5060688;28;20025;-64
2024/01/02 00:29:28;;;;;;;2.63;0.60;;;8.00;99.90;;;;;;5059503;28;20072;-63
2024/01/02 00:31:54;;;;;;;3.45;0.70;;;8.00;99.90;;;;;;5060352;28;20041;-65
2024/01/02 00:34:20;;;;;;;2.90;0.68;;;8.00;99.90;;;;;;5060264;28;20025;-63
2024/01/02 00:36:46;;;;;;;3.20;0.93;;;8.00;99.90;;;;;;5059545;28;20059;-63
2024/01/02 00:39:11;;;;;;;1.80;0.70;;;8.00;99.90;;;;;;5060203;28;20316;-63
2024/01/02 00:41:37;;;;;;;3.83;0.80;;;8.00;99.90;;;;;;5060199;28;20039;-63
2024/01/02 00:44:03;;;;;;;1.52;0.60;;;8.00;99.90;;;;;;5059323;28;20052;-63
2024/01/02 00:46:29;;;;;;;1.73;0.35;;;8.00;99.90;;;;;;5060378;28;20029;-64
2024/01/02 00:48:55;;;;;;;1.85;0.40;;;8.10;99.90;;;;;;5060123;28;20300;-64
2024/01/02 00:51:21;;;;;;;1.45;0.50;;;8.10;99.90;;;;;;5059949;28;20043;-64
2024/01/02 00:53:47;;;;;;;1.83;0.60;;;8.10;99.90;;;;;;5059885;28;20087;-63
2024/01/02 00:56:13;;;;;;;1.48;0.80;;;8.10;99.90;;;;;;5059876;28;20380;-63
2024/01/02 00:58:39;;;;;;;1.83;0.30;;;8.10;99.90;;;;;;5059882;28;20051;-64
2024/01/02 01:01:05;;;;;;;2.97;0.60;;;8.10;99.90;;;;;;5042313;28;22242;-65
2024/01/02 01:03:31;;;;;;;2.78;0.57;;;8.10;99.90;;;;;;5059909;28;20300;-64
2024/01/02 01:05:56;;;;;;;0.63;0.38;;;8.10;99.90;;;;;;5059803;28;20021;-66
2024/01/02 01:08:22;;;;;;;0.73;0.30;;;8.10;99.90;;;;;;5058787;28;20029;-64
2024/01/02 01:10:48;;;;;;;1.33;0.30;;;8.20;99.90;;;;;;5058854;28;20021;-65
2024/01/02 01:13:13;;;;;;;0.68;0.43;;;8.20;99.90;;;;;;5059423;28;20064;-64
2024/01/02 01:15:39;;;;;;;0.50;0.30;;;8.30;99.90;;;;;;5058957;28;20450;-64
2024/01/02 01:18:05;;;;;;;0.28;0.22;;;8.30;99.90;;;;;;5058740;28;20099;-64
2024/01/02 01:20:31;;;;;;;0.95;0.30;;;8.30;99.90;;;;;;5058703;28;20025;-64
2024/01/02 01:22:57;;;;;;;0.70;0.20;;;8.40;99.90;;;;;;5058621;28;20098;-64
2024/01/02 01:25:23;;;;;;;0.90;0.30;;;8.40;99.90;;;;;;5058659;28;20041;-63
2024/01/02 01:27:49;;;;;;;1.52;0.30;;;8.50;99.90;;;;;;5059406;28;20270;-64
2024/01/02 01:30:15;;;;;;;0.93;0.43;;;8.50;99.90;;;;;;5058276;28;20328;-64
2024/01/02 01:32:41;;;;;;;0.40;0.22;;;8.50;99.90;;;;;;5058209;28;20036;-64
2024/01/02 01:35:07;;;;;;;0.20;0.20;;;8.50;99.90;;;;;;5058471;28;20120;-64
2024/01/02 01:37:33;;;;;;;0.50;0.22;;;8.60;99.90;;;;;;5059067;28;20039;-64
2024/01/02 01:40:00;;;;;;;0.65;0.28;;;8.60;99.90;;;;;;5041736;28;20037;-64
2024/01/02 01:42:25;;;;;;;0.55;0.20;;;8.60;99.90;;;;;;5058887;28;20055;-65
2024/01/02 01:44:52;;;;;;;0.32;0.10;;;8.60;99.90;;;;;;5025435;28;20033;-62
2024/01/02 01:47:18;;;;;;;1.75;0.30;;;8.60;99.90;;;;;;5058253;28;20049;-62
2024/01/02 01:49:44;;;;;;;1.23;0.20;;;8.70;99.90;;;;;;5058209;28;20072;-63
2024/01/02 01:52:11;;;;;;;0.70;0.20;;;8.70;99.90;;;;;;5058829;28;20466;-63
2024/01/02 01:54:37;;;;;;;0.20;0.20;;;8.70;99.90;;;;;;5058030;28;20305;-62
2024/01/02 01:57:04;;;;;;;0.65;0.32;;;8.70;99.90;;;;;;5058809;28;20040;-62
2024/01/02 01:59:31;;;;;;;2.38;0.30;;;8.70;99.90;;;;;;5057914;28;20048;-63
2024/01/02 02:01:57;;;;;;;1.00;0.30;;;8.70;99.90;;;;;;5057757;28;20098;-64
2024/01/02 02:04:27;;;;;;;0.75;0.30;;;8.70;99.90;;;;;;5058537;28;20445;-62
2024/01/02 02:06:53;;;;;;;1.05;0.30;;;8.80;99.90;;;;;;5041167;28;20028;-62
2024/01/02 02:09:18;;;;;;;1.45;0.30;;;8.80;99.90;;;;;;5058581;28;20308;-64
2024/01/02 02:11:45;;;;;;;0.30;0.30;;;8.80;99.90;;;;;;5058466;28;20068;-61
2024/01/02 02:14:11;;;;;;;0.50;0.30;;;8.80;99.90;;;;;;5058457;28;20029;-65
2024/01/02 02:16:41;;;;;;;0.63;0.28;;;8.80;99.90;;;;;;5058439;28;20112;-61
2024/01/02 02:19:07;;;;;;;0.50;0.32;;;8.80;99.90;;;;;;5057566;28;20029;-63
2024/01/02 02:21:35;;;;;;;1.00;0.30;;;8.80;99.90;;;;;;5040918;28;20029;-63
2024/01/02 02:24:01;;;;;;;0.20;0.17;;;8.80;99.90;;;;;;5058282;28;20037;-61
2024/01/02 02:26:27;;;;;;;1.52;0.40;;;8.80;99.90;;;;;;5057352;28;20408;-61
2024/01/02 02:28:53;;;;;;;0.30;0.20;;;8.90;99.90;;;;;;5057393;28;20097;-62
2024/01/02 02:31:19;;;;;;;0.75;0.20;;;8.90;99.90;;;;;;5058109;28;20400;-62
2024/01/02 02:33:44;;;;;;;0.32;0.20;;;8.90;99.90;;;;;;5058079;28;20423;-59
2024/01/02 02:36:11;;;;;;;1.92;0.30;;;8.90;99.90;;;;;;5040596;28;20332;-61
2024/01/02 02:38:36;;;;;;;0.43;0.25;;;8.90;99.90;;;;;;5057951;28;20037;-61
2024/01/02 02:41:02;;;;;;;0.32;0.20;;;9.00;99.90;;;;;;5057921;28;20028;-61
2024/01/02 02:43:29;;;;;;;0.95;0.30;;;9.00;99.90;;;;;;5057021;28;20296;-63
2024/01/02 02:45:55;;;;;;;0.73;0.30;;;9.00;99.90;;;;;;5057799;28;20035;-61
2024/01/02 02:48:20;;;;;;;0.20;0.20;;;9.00;99.90;;;;;;5058010;28;20029;-62
2024/01/02 02:50:46;;;;;;;0.60;0.30;;;9.10;99.90;;;;;;5057140;28;20025;-63
2024/01/02 02:53:12;;;;;;;1.38;0.20;;;9.10;99.90;;;;;;5056972;28;20033;-61
2024/01/02 02:55:38;;;;;;;0.40;0.20;;;9.10;99.90;;;;;;5056779;28;20068;-62
2024/01/02 02:58:03;;;;;;;1.00;0.10;;;9.20;99.90;;;;;;5057599;28;20055;-63
2024/01/02 03:00:29;;;;;;;0.40;0.30;;;9.20;99.90;;;;;;5057500;28;20124;-63
2024/01/02 03:02:56;;;;;;;0.30;0.20;;;9.30;99.90;;;;;;5057377;28;20033;-63
2024/01/02 03:05:22;;;;;;;0.22;0.20;;;9.30;99.90;;;;;;5056661;28;20036;-62
2024/01/02 03:07:48;;;;;;;0.90;0.30;;;9.30;99.90;;;;;;5056749;28;20324;-63
2024/01/02 03:10:17;;;;;;;0.77;0.30;;;9.40;99.90;;;;;;5057331;28;20074;-62
2024/01/02 03:12:44;;;;;;;0.50;0.30;;;9.40;99.90;;;;;;5057336;28;20036;-60
2024/01/02 03:15:10;;;;;;;0.43;0.22;;;9.50;99.90;;;;;;5057212;28;20036;-63
2024/01/02 03:17:36;;;;;;;0.63;0.30;;;9.60;99.90;;;;;;5039841;28;20032;-62
2024/01/02 03:20:02;;;;;;;0.50;0.32;;;9.60;99.90;;;;;;5056363;28;20466;-62
2024/01/02 03:22:28;;;;;;;1.65;0.30;;;9.60;99.90;;;;;;5057081;28;20418;-61
2024/01/02 03:24:54;;;;;;;0.30;0.20;;;9.60;99.90;;;;;;5056354;28;20092;-62
2024/01/02 03:27:20;;;;;;;0.70;0.30;;;9.70;99.90;;;;;;5056198;28;20399;-64
2024/01/02 03:29:46;;;;;;;0.52;0.20;;;9.70;99.90;;;;;;5056043;28;20420;-62
2024/01/02 03:32:11;;;;;;;0.30;0.20;;;9.80;99.90;;;;;;5056946;28;20029;-59
2024/01/02 03:34:37;;;;;;;2.40;0.30;;;9.90;99.90;;;;;;5040062;28;20108;-59
2024/01/02 03:37:04;;;;;;;0.32;0.20;;;9.90;99.90;;;;;;5056909;28;20032;-62
2024/01/02 03:39:30;;;;;;;0.57;0.20;;;9.90;99.90;;;;;;5056477;28;20471;-61
2024/01/02 03:41:55;;;;;;;0.35;0.10;;;10.00;99.90;;;;;;5056708;28;20167;-60
2024/01/02 03:44:21;;;;;;;1.38;0.10;;;10.00;99.90;;;;;;5056049;28;20396;-61
2024/01/02 03:46:47;;;;;;;0.20;0.10;;;10.10;99.90;;;;;;5056780;28;20048;-62
2024/01/02 03:49:13;;;;;;;0.28;0.10;;;10.10;99.90;;;;;;5056781;28;20033;-61
2024/01/02 03:51:39;;;;;;;1.27;0.10;;;10.10;99.90;;;;;;5056852;28;20044;-60
2024/01/02 03:54:06;;;;;;;0.40;0.20;;;10.20;99.90;;;;;;5056482;28;20439;-61
2024/01/02 03:56:32;;;;;;;0.20;0.20;;;10.20;99.90;;;;;;5056714;28;20417;-62
2024/01/02 03:58:58;;;;;;;0.88;0.28;;;10.20;99.90;;;;;;5056848;28;20056;-60
2024/01/02 04:01:24;;;;;;;0.55;0.30;;;10.30;99.90;;;;;;5056672;28;20442;-58
2024/01/02 04:03:50;;;;;;;0.08;0.08;;;10.30;99.90;;;;;;5056725;28;20028;-59
2024/01/02 04:06:16;;;;;;;1.38;0.10;;;10.30;99.90;;;;;;5039447;28;20304;-61
2024/01/02 04:08:41;;;;;;;0.40;0.20;;;10.30;99.90;;;;;;5056048;28;20078;-63
2024/01/02 04:11:07;;;;;;;0.20;0.20;;;10.30;99.90;;;;;;5056656;28;20025;-60
2024/01/02 04:13:33;;;;;;;0.10;0.10;;;10.30;99.90;;;;;;5055796;28;20029;-61
2024/01/02 04:15:59;;;;;;;0.15;0.10;;;10.40;99.90;;;;;;5056622;28;20026;-61
2024/01/02 04:18:25;;;;;;;0.22;0.20;;;10.40;99.90;;;;;;5055836;28;20245;-61
2024/01/02 04:20:50;;;;;;;0.40;0.20;;;10.40;99.90;;;;;;5056557;28;20040;-61
2024/01/02 04:23:16;;;;;;;0.20;0.20;;;10.40;99.90;;;;;;5039179;28;20094;-61
2024/01/02 04:25:42;;;;;;;0.20;0.15;;;10.50;99.90;;;;;;5056464;28;20061;-61
2024/01/02 04:28:08;;;;;;;0.10;0.10;;;10.50;99.90;;;;;;5055770;28;20281;-60
2024/01/02 04:30:34;;;;;;;0.20;0.20;;;10.50;99.90;;;;;;5056151;28;20057;-60
2024/01/02 04:33:00;;;;;;;0.73;0.20;;;10.50;99.90;;;;;;5055680;28;20037;-61
2024/01/02 04:35:26;;;;;;;0.60;0.30;;;10.60;99.90;;;;;;5056401;28;20098;-62
2024/01/02 04:37:51;;;;;;;0.43;0.20;;;10.60;99.90;;;;;;5056318;28;20025;-62
2024/01/02 04:40:17;;;;;;;0.13;0.13;;;10.60;99.90;;;;;;5055593;28;20083;-61
2024/01/02 04:42:43;;;;;;;0.20;0.20;;;10.60;99.90;;;;;;5056269;28;20036;-62
2024/01/02 04:45:09;;;;;;;0.45;0.20;;;10.70;99.90;;;;;;5055465;28;20029;-61
2024/01/02 04:47:36;;;;;;;0.45;0.20;;;10.70;99.90;;;;;;5055504;28;20435;-59
2024/01/02 04:50:04;;;;;;;0.30;0.30;;;10.70;99.90;;;;;;5056248;28;20289;-60
2024/01/02 04:52:30;;;;;;;0.70;0.35;;;10.70;99.90;;;;;;5056115;28;20339;-60
2024/01/02 04:54:56;;;;;;;0.65;0.30;;;10.80;99.90;;;;;;5055297;28;20029;-60
2024/01/02 04:57:22;;;;;;;0.88;0.30;;;10.80;99.90;;;;;;5056097;28;20033;-61
2024/01/02 04:59:48;;;;;;;0.20;0.20;;;10.80;99.90;;;;;;5056136;28;20043;-60
2024/01/02 05:02:14;;;;;;;0.43;0.38;;;10.80;99.90;;;;;;5038729;28;20182;-61
2024/01/02 05:04:41;;;;;;;0.32;0.32;;;10.80;99.90;;;;;;5055338;28;20029;-60
2024/01/02 05:07:07;;;;;;;0.40;0.30;;;10.90;99.90;;;;;;5056375;28;20032;-61
2024/01/02 05:09:32;;;;;;;0.40;0.40;;;10.80;99.90;;;;;;5059611;28;20033;-60
2024/01/02 05:11:58;;;;;;;0.40;0.40;;;10.90;99.90;;;;;;5058860;28;20039;-61
2024/01/02 05:14:24;;;;;;;0.60;0.60;;;10.90;99.90;;;;;;5058712;28;20127;-60
2024/01/02 05:16:50;;;;;;;0.63;0.40;;;10.90;99.90;;;;;;5058610;28;20033;-61
2024/01/02 05:19:18;;;;;;;0.47;0.43;;;10.90;99.90;;;;;;5059436;28;20037;-61
2024/01/02 05:21:43;;;;;;;0.50;0.50;;;10.90;99.90;;;;;;5059253;28;20270;-61
2024/01/02 05:24:09;;;;;;;0.50;0.50;;;11.00;99.90;;;;;;5058422;28;20132;-60
2024/01/02 05:26:35;;;;;;;0.60;0.60;;;11.00;99.90;;;;;;5059222;28;20040;-58
2024/01/02 05:29:01;;;;;;;0.60;0.60;;;11.00;99.90;;;;;;5058271;28;20033;-59
2024/01/02 05:31:27;;;;;;;0.98;0.60;;;11.00;99.90;;;;;;5058424;28;20075;-59
2024/01/02 05:33:52;;;;;;;1.00;0.60;;;11.10;99.90;;;;;;5059144;28;20068;-59
2024/01/02 05:36:18;;;;;;;0.63;0.63;;;11.10;99.90;;;;;;5058345;28;20100;-59
2024/01/02 05:38:44;;;;;;;1.20;0.75;;;11.10;99.90;;;;;;5058169;28;20056;-60
2024/01/02 05:41:10;;;;;;;1.88;1.00;;;11.30;99.90;;;;;;5058103;28;20343;-59
2024/01/02 05:43:35;;;;;;;2.72;1.10;;;11.30;99.90;;;;;;5058060;28;20072;-58
2024/01/02 05:46:01;;;;;;;1.92;1.10;;;11.30;99.90;;;;;;5058737;28;20296;-60
2024/01/02 05:48:27;;;;;;;3.65;1.27;;;11.40;99.90;;;;;;5058144;28;20289;-59
2024/01/02 05:50:53;;;;;;;3.22;1.60;;;11.50;99.90;;;;;;5058029;28;20025;-59
2024/01/02 05:53:18;;;;;;;3.20;1.98;;;11.50;99.90;;;;;;5057998;28;20045;-61
2024/01/02 05:55:44;;;;;;;4.72;1.90;;;11.50;99.90;;;;;;5057930;28;20094;-60
2024/01/02 05:58:10;;;;;;;6.43;2.17;;;11.50;99.90;;;;;;5058613;28;20036;-62
2024/01/02 06:00:36;;;;;;;2.88;2.03;;;11.50;99.90;;;;;;5057788;28;20073;-64
2024/01/02 06:03:01;;;;;;;2.97;2.15;;;11.50;99.90;;;;;;5040897;28;20044;-59
2024/01/02 06:05:27;;;;;;;3.17;2.00;;;11.60;99.90;;;;;;5057643;28;20044;-57
2024/01/02 06:07:53;;;;;;;3.33;2.40;;;11.60;99.90;;;;;;5058527;28;20036;-60
2024/01/02 06:10:19;;;;;;;2.72;1.95;;;11.70;99.90;;;;;;5058358;28;20040;-58
2024/01/02 06:12:45;;;;;;;2.47;1.98;;;11.80;99.90;;;;;;5057408;28;20064;-58
2024/01/02 06:15:13;;;;;;;3.58;2.38;;;11.70;99.90;;;;;;5058293;28;20049;-59
2024/01/02 06:17:39;;;;;;;4.78;1.90;;;11.70;99.90;;;;;;5057988;28;20029;-60
2024/01/02 06:20:06;;;;;;;3.60;2.10;;;11.70;99.90;;;;;;5058190;28;20044;-64
2024/01/02 06:22:32;;;;;;;3.40;2.13;;;11.80;99.90;;;;;;5057413;28;20122;-60
2024/01/02 06:24:58;;;;;;;4.50;2.60;;;11.70;99.90;;;;;;5040849;28;20053;-64
2024/01/02 06:27:23;;;;;;;4.97;2.35;;;11.90;99.90;;;;;;5058059;28;20029;-62
2024/01/02 06:29:49;;;;;;;5.47;2.40;;;11.80;99.90;;;;;;5057871;28;20068;-59
2024/01/02 06:32:15;;;;;;;5.45;2.53;;;11.80;99.90;;;;;;5057953;28;20052;-62
2024/01/02 06:34:41;;;;;;;6.82;2.88;;;11.90;99.90;;;;;;5058218;28;20033;-62
2024/01/02 06:37:06;;;;;;;5.97;2.47;;;11.90;99.90;;;;;;5057805;28;20041;-58
2024/01/02 06:39:34;;;;;;;6.95;2.70;;;12.00;99.90;;;;;;5057942;28;20410;-59
2024/01/02 06:41:59;;;;;;;6.40;2.63;;;11.90;99.90;;;;;;5057726;28;20112;-60
2024/01/02 06:44:25;;;;;;;5.82;2.80;;;12.00;99.90;;;;;;5057802;28;20128;-69
2024/01/02 06:46:51;;;;;;;6.13;2.67;;;12.00;99.90;;;;;;5057897;28;20392;-59
2024/01/02 06:49:17;;;;;;;5.55;2.20;;;12.10;99.90;;;;;;5057692;28;20025;-60
2024/01/02 06:51:42;;;;;;;5.43;2.45;;;12.10;99.90;;;;;;5057646;28;20060;-58
2024/01/02 06:54:08;;;;;;;2.83;2.00;;;12.10;99.90;;;;;;5057568;28;20044;-60
2024/01/02 06:56:34;;;;;;;5.82;2.10;;;12.20;99.90;;;;;;5057451;28;20304;-58
2024/01/02 06:59:00;;;;;;;4.32;1.90;;;12.10;99.90;;;;;;5056769;28;20111;-60
2024/01/02 07:01:25;;;;;;;6.15;2.00;;;12.00;99.90;;;;;;5057226;28;20136;-64
2024/01/02 07:03:51;;;;;;;4.13;1.83;;;12.00;99.90;;;;;;5056654;28;20069;-59
2024/01/02 07:06:17;;;;;;;4.57;1.80;;;12.00;99.90;;;;;;5057353;28;20335;-62
2024/01/02 07:08:43;;;;;;;4.40;1.63;;;12.00;99.90;;;;;;5056666;28;20434;-59
2024/01/02 07:11:08;;;;;;;4.40;1.95;;;12.10;99.90;;;;;;5056462;28;20411;-59
2024/01/02 07:13:34;;;;;;;4.15;1.63;;;12.10;99.90;;;;;;5057314;28;20044;-59
2024/01/02 07:16:00;;;;;;;2.60;1.23;;;12.20;99.90;;;;;;5057237;28;20170;-61
2024/01/02 07:18:28;;;;;;;5.57;2.40;;;12.30;99.90;;;;;;5023315;28;20056;-59
2024/01/02 07:20:53;;;;;;;5.38;1.70;;;12.30;99.90;;;;;;5057094;28;20094;-59
2024/01/02 07:23:19;;;;;;;3.10;1.77;;;12.20;99.90;;;;;;5056282;28;20381;-60
2024/01/02 07:25:45;;;;;;;2.53;1.60;;;12.20;99.90;;;;;;5057172;28;20078;-58
2024/01/02 07:28:11;;;;;;;2.03;1.40;;;12.10;99.90;;;;;;5057139;28;20025;-65
2024/01/02 07:30:37;;;;;;;2.08;1.30;;;12.10;99.90;;;;;;5055273;28;20060;-58
2024/01/02 07:33:03;;;;;;;1.95;1.10;;;12.00;99.90;;;;;;5056840;28;20415;-58
2024/01/02 07:35:29;;;;;;;2.65;1.10;;;12.00;99.90;;;;;;5056814;28;20029;-58
2024/01/02 07:37:55;;;;;;;2.38;1.00;;;11.90;99.90;;;;;;5056272;28;20066;-58
2024/01/02 07:40:21;;;;;;;1.30;1.10;;;11.90;99.90;;;;;;5056814;28;20043;-57
2024/01/02 07:42:47;;;;;;;1.40;1.00;;;11.90;99.90;;;;;;5056643;28;20353;-57
2024/01/02 07:45:12;;;;;;;2.13;1.08;;;11.90;99.90;;;;;;5056785;28;20381;-58
2024/01/02 07:47:38;;;;;;;2.03;1.13;;;11.80;99.90;;;;;;5056477;28;20049;-57
2024/01/02 07:50:05;;;;;;;2.65;1.30;;;11.80;99.90;;;;;;5056664;28;20079;-58
2024/01/02 07:52:31;;;;;;;1.75;1.00;;;11.80;99.90;;;;;;5056546;28;20033;-58
2024/01/02 07:54:57;;;;;;;1.50;1.33;;;11.90;99.90;;;;;;5056621;28;20102;-58
2024/01/02 07:57:25;;;;;;;1.52;1.40;;;11.80;99.90;;;;;;5056481;28;20049;-59
2024/01/02 07:59:51;;;;;;;1.45;1.35;;;11.80;99.90;;;;;;5056466;28;20052;-58
2024/01/02 08:02:17;;;;;;;1.88;1.50;;;11.70;99.90;;;;;;5056412;28;20075;-58
2024/01/02 08:04:42;;;;;;;2.80;1.60;;;11.70;99.90;;;;;;5056547;28;20109;-58
2024/01/02 08:07:08;;;;;;;1.70;1.60;;;11.70;99.90;;;;;;5056305;28;20029;-59
2024/01/02 08:09:37;;;;;;;1.50;1.40;;;11.70;99.90;;;;;;5055733;28;20376;-59
2024/01/02 08:12:03;;;;;;;1.70;1.60;;;11.70;99.90;;;;;;5056359;28;20025;-58
2024/01/02 08:14:29;;;;;;;1.90;1.70;;;11.70;99.90;;;;;;5055800;28;20033;-59
2024/01/02 08:16:55;;;;;;;2.20;2.00;;;11.70;99.90;;;;;;5056395;28;20036;-59
2024/01/02 08:19:24;;;;;;;1.83;1.70;;;11.70;99.90;;;;;;5055609;28;20392;-59
2024/01/02 08:21:50;;;;;;;2.67;1.83;;;11.70;99.90;;;;;;5056269;28;20075;-59
2024/01/02 08:24:15;;;;;;;2.20;1.92;;;11.70;99.90;;;;;;5056248;28;20412;-59
2024/01/02 08:26:42;;;;;;;1.55;1.23;;;11.70;99.90;;;;;;5056390;28;20036;-58
2024/01/02 08:29:08;;;;;;;1.45;1.35;;;11.70;99.90;;;;;;5056134;28;20049;-60
2024/01/02 08:31:34;;;;;;;3.05;1.30;;;11.60;99.90;;;;;;5056072;28;20246;-59
2024/01/02 08:34:00;;;;;;;1.65;0.77;;;11.60;99.90;;;;;;5055982;28;20286;-60
2024/01/02 08:36:26;;;;;;;0.70;0.70;;;11.60;99.90;;;;;;5056248;28;20043;-60
2024/01/02 08:38:51;;;;;;;2.05;0.70;;;11.70;99.90;;;;;;5056144;28;20033;-60
2024/01/02 08:41:17;;;;;;;0.50;0.50;;;11.70;99.90;;;;;;5056977;28;20028;-59
2024/01/02 08:43:43;;;;;;;0.75;0.47;;;11.70;99.90;;;;;;5060074;28;20397;-58
2024/01/02 08:46:09;;;;;;;0.38;0.38;;;11.70;99.90;;;;;;5059875;28;20021;-60
2024/01/02 08:48:35;;;;;;;0.93;0.60;;;11.70;99.90;;;;;;5059882;28;20045;-60
2024/01/02 08:51:01;;;;;;;0.60;0.60;;;11.70;99.90;;;;;;5059989;28;20326;-59
2024/01/02 08:53:27;;;;;;;0.50;0.50;;;11.70;99.90;;;;;;5059805;28;20037;-58
2024/01/02 08:55:52;;;;;;;0.90;0.50;;;11.70;99.90;;;;;;5060003;28;20266;-58
2024/01/02 08:58:18;;;;;;;0.82;0.55;;;11.70;99.90;;;;;;5059152;28;20033;-58
2024/01/02 09:00:44;;;;;;;0.47;0.47;;;11.70;99.90;;;;;;5059135;28;20067;-59
2024/01/02 09:03:10;;;;;;;0.80;0.50;;;11.70;99.90;;;;;;5059675;28;20124;-58
2024/01/02 09:05:36;;;;;;;0.63;0.40;;;11.70;99.90;;;;;;5058988;28;20274;-60
2024/01/02 09:08:04;;;;;;;0.50;0.25;;;11.70;99.90;;;;;;5058863;28;20040;-62
2024/01/02 09:10:30;;;;;;;0.40;0.40;;;11.70;99.90;;;;;;5059723;28;20025;-59
2024/01/02 09:12:56;;;;;;;0.40;0.40;;;11.70;99.90;;;;;;5058844;28;20328;-59
2024/01/02 09:15:21;;;;;;;1.13;0.30;;;11.70;99.90;;;;;;5059569;28;20025;-59
2024/01/02 09:17:47;;;;;;;0.55;0.30;;;11.70;99.90;;;;;;5058619;28;20116;-59
2024/01/02 09:20:13;;;;;;;0.50;0.40;;;11.60;99.90;;;;;;5059392;28;20041;-58
2024/01/02 09:22:39;;;;;;;0.40;0.40;;;11.60;99.90;;;;;;5059281;28;20371;-58
2024/01/02 09:25:05;;;;;;;0.28;0.20;;;11.70;99.90;;;;;;5058633;28;20130;-58
2024/01/02 09:27:35;;;;;;;1.45;0.40;;;11.70;99.90;;;;;;5059326;28;20296;-58
2024/01/02 09:30:01;;;;;;;0.80;0.40;;;11.60;99.90;;;;;;5059157;28;20045;-59
2024/01/02 09:32:27;;;;;;;1.20;0.30;;;11.60;99.90;;;;;;5059092;28;20037;-58
2024/01/02 09:34:53;;;;;;;0.52;0.20;;;11.70;99.90;;;;;;5059233;28;20392;-58
2024/01/02 09:37:19;;;;;;;0.30;0.20;;;11.70;99.90;;;;;;5059129;28;20029;-59
2024/01/02 09:39:45;;;;;;;0.55;0.20;;;11.70;99.90;;;;;;5059145;28;20033;-58
2024/01/02 09:42:43;;;;;;;0.20;0.20;;;11.70;99.90;;;;;;5058871;28;20044;-58
2024/01/02 09:45:44;;;;;;;0.30;0.20;;;11.70;99.90;;;;;;5059027;28;20024;-60
2024/01/02 09:48:10;;;;;;;0.13;0.10;;;11.70;99.90;;;;;;5058828;28;20439;-59
2024/01/02 09:51:14;;;;;;;0.90;0.20;;;11.70;99.90;;;;;;5059181;28;20068;-59
2024/01/02 09:53:56;;;;;;;0.38;0.20;;;11.70;99.90;;;;;;5057756;28;20341;-60
2024/01/02 09:56:36;;;;;;;0.15;0.10;;;11.70;99.90;;;;;;5058883;28;20079;-61
2024/01/02 09:59:25;;;;;;;0.43;0.15;;;11.60;99.90;;;;;;5058819;28;20404;-60
2024/01/02 10:02:00;;;;;;;0.30;0.20;;;11.60;99.90;;;;;;5058753;28;20127;-60
2024/01/02 10:04:41;;;;;;;1.38;0.30;;;11.60;99.90;;;;;;5058987;28;20335;-60
2024/01/02 10:07:30;;;;;;;0.45;0.20;;;11.50;99.90;;;;;;5058612;28;20316;-59
2024/01/02 10:10:20;;;;;;;0.30;0.20;;;11.60;99.90;;;;;;5058724;28;20035;-60
2024/01/02 10:13:06;;;;;;;0.22;0.20;;;11.50;99.90;;;;;;5058470;28;20083;-59
2024/01/02 10:15:54;;;;;;;0.20;0.20;;;11.50;99.90;;;;;;5058304;28;20412;-59
2024/01/02 10:19:00;;;;;;;2.00;0.20;;;11.50;99.90;;;;;;5058286;28;20401;-59
2024/01/02 10:21:55;;;;;;;0.50;0.20;;;11.50;99.90;;;;;;5057420;28;20041;-59
2024/01/02 10:24:23;;;;;;;0.30;0.20;;;11.40;99.90;;;;;;5057894;28;20116;-58
2024/01/02 10:27:14;;;;;;;0.10;0.00;;;11.40;99.90;;;;;;5058326;28;20089;-59
2024/01/02 10:29:42;;;;;;;0.60;0.30;;;11.40;99.90;;;;;;5058210;28;20087;-60
2024/01/02 10:32:21;;;;;;;0.52;0.20;;;11.40;99.90;;;;;;5058020;28;20036;-60
2024/01/02 10:34:56;;;;;;;0.30;0.17;;;11.40;99.90;;;;;;5058609;28;20434;-61
2024/01/02 10:37:28;;;;;;;0.30;0.20;;;11.40;99.90;;;;;;5057363;28;20342;-60
2024/01/02 10:40:02;;;;;;;;;;;11.30;99.90;;;;;;5057890;28;20094;-60
2024/01/02 10:43:07;;;;;;;2.92;0.90;;;11.30;99.90;;;;;;5058059;28;20165;-59
2024/01/02 10:45:52;;;;;;;0.60;0.47;;;11.30;99.90;;;;;;5049476;28;20048;-58
2024/01/02 10:48:23;;;;;;;1.05;0.40;;;11.20;99.90;;;;;;5057630;28;20025;-60
2024/01/02 10:51:04;;;;;;;0.40;0.30;;;11.10;99.90;;;;;;5057605;28;20120;-59
2024/01/02 10:54:06;;;;;;;1.10;0.22;;;11.20;99.90;;;;;;5057950;28;20064;-59
2024/01/02 10:56:37;;;;;;;0.28;0.28;;;11.10;99.90;;;;;;5057742;28;20359;-62
2024/01/02 10:59:30;;;;;;;2.05;0.40;;;11.10;99.90;;;;;;5057787;28;20300;-60
2024/01/02 11:02:06;;;;;;;0.65;0.40;;;11.10;99.90;;;;;;5057379;28;20037;-59
2024/01/02 11:04:46;;;;;;;0.32;0.32;;;11.00;99.90;;;;;;5057699;28;20033;-60
2024/01/02 11:07:16;;;;;;;0.85;0.40;;;11.00;99.90;;;;;;5056715;28;20029;-59
2024/01/02 11:09:56;;;;;;;0.63;0.50;;;11.00;99.90;;;;;;5057398;28;20021;-59
2024/01/02 11:12:27;;;;;;;0.65;0.47;;;10.90;99.90;;;;;;5057306;28;20037;-60
2024/01/02 11:14:53;;;;;;;0.50;0.40;;;10.90;99.90;;;;;;5057413;28;20064;-60
2024/01/02 11:17:20;;;;;;;0.65;0.47;;;10.90;99.90;;;;;;5056606;28;20086;-60
2024/01/02 11:20:03;;;;;;;0.68;0.40;;;10.90;99.90;;;;;;5057126;28;20036;-60
2024/01/02 11:22:56;;;;;;;0.63;0.45;;;10.90;99.90;;;;;;5057403;28;20412;-60
2024/01/02 11:25:25;;;;;;;3.47;0.40;;;10.80;99.90;;;;;;5056746;28;20124;-60
2024/01/02 11:27:53;;;;;;;0.50;0.30;;;10.90;99.90;;;;;;5057266;28;20037;-60
2024/01/02 11:30:20;;;;;;;1.48;0.35;;;10.80;99.90;;;;;;5056924;28;20049;-60
2024/01/02 11:32:49;;;;;;;0.90;0.68;;;10.80;99.90;;;;;;5057004;28;20067;-60
2024/01/02 11:35:16;;;;;;;0.73;0.40;;;10.80;99.90;;;;;;5057246;28;20124;-59
2024/01/02 11:37:47;;;;;;;0.40;0.30;;;10.80;99.90;;;;;;5057216;28;20477;-61
2024/01/02 11:40:16;;;;;;;0.47;0.40;;;10.80;99.90;;;;;;5057069;28;20286;-59
2024/01/02 11:42:54;;;;;;;0.98;0.43;;;10.80;99.90;;;;;;5055962;28;20033;-59
2024/01/02 11:45:21;;;;;;;0.63;0.43;;;10.80;99.90;;;;;;5056863;28;20112;-60
2024/01/02 11:48:03;;;;;;;0.70;0.47;;;10.80;99.90;;;;;;5056656;28;20017;-57
2024/01/02 11:50:57;;;;;;;0.93;0.40;;;10.80;99.90;;;;;;5056734;28;20083;-59
2024/01/02 11:54:01;;;;;;;1.30;0.38;;;10.80;99.90;;;;;;5053351;28;20048;-60
2024/01/02 11:56:31;;;;;;;1.70;0.60;;;10.80;99.90;;;;;;5044881;28;20116;-58
2024/01/02 11:59:01;;;;;;;1.42;0.70;;;10.80;99.90;;;;;;5056961;28;20285;-60
2024/01/02 12:01:41;;;;;;;1.30;0.60;;;10.80;99.90;;;;;;5056526;28;20040;-60
2024/01/02 12:04:38;;;;;;;0.85;0.40;;;10.90;99.90;;;;;;5056603;28;20108;-59
2024/01/02 12:07:22;;;;;;;1.45;0.40;;;10.80;99.90;;;;;;5056608;28;20037;-60
2024/01/02 12:09:49;;;;;;;0.88;0.40;;;10.90;99.90;;;;;;5056649;28;20029;-60
2024/01/02 12:12:42;;;;;;;1.65;0.50;;;10.90;99.90;;;;;;5056501;28;20473;-58
2024/01/02 12:15:13;;;;;;;0.43;0.30;;;11.00;99.90;;;;;;5056513;28;20024;-60
2024/01/02 12:18:04;;;;;;;0.80;0.45;;;11.00;99.90;;;;;;5060448;28;20041;-59
2024/01/02 12:20:53;;;;;;;0.20;0.20;;;11.00;99.90;;;;;;5059990;28;20051;-59
2024/01/02 12:23:19;;;;;;;0.88;0.52;;;11.00;99.90;;;;;;5060188;28;20423;-59
2024/01/02 12:25:48;;;;;;;0.70;0.38;;;11.00;99.90;;;;;;5060234;28;20035;-60
2024/01/02 12:28:14;;;;;;;0.65;0.43;;;11.10;99.90;;;;;;5060171;28;20052;-58
2024/01/02 12:31:10;;;;;;;0.40;0.30;;;11.10;99.90;;;;;;5060141;28;20073;-60
2024/01/02 12:33:38;;;;;;;0.45;0.20;;;11.20;99.90;;;;;;5060327;28;20431;-59
2024/01/02 12:36:19;;;;;;;0.47;0.20;;;11.20;99.90;;;;;;5060260;28;20301;-58
2024/01/02 12:38:53;;;;;;;0.65;0.40;;;11.20;99.90;;;;;;5060100;28;20064;-59
2024/01/02 12:41:24;;;;;;;0.95;0.30;;;11.30;99.90;;;;;;5059923;28;20037;-60
2024/01/02 12:43:52;;;;;;;0.45;0.30;;;11.30;99.90;;;;;;5060079;28;20400;-59
2024/01/02 12:46:26;;;;;;;0.30;0.20;;;11.40;99.90;;;;;;5060022;28;20029;-58
2024/01/02 12:49:04;;;;;;;0.30;0.30;;;11.40;99.90;;;;;;5059949;28;20029;-60
2024/01/02 12:51:32;;;;;;;0.60;0.30;;;11.40;99.90;;;;;;5059852;28;20017;-60
2024/01/02 12:54:01;;;;;;;0.90;0.40;;;11.50;99.90;;;;;;5059713;28;20094;-60
2024/01/02 12:56:32;;;;;;;1.75;0.32;;;11.50;99.90;;;;;;5059874;28;20024;-59
2024/01/02 12:59:06;;;;;;;1.38;0.30;;;11.50;99.90;;;;;;5059961;28;20033;-60